createdAt,value
2019-05-29T00:00:10.070Z,1.15
2019-05-29T00:02:37.392Z,1.07
2019-05-29T00:05:07.965Z,1.42
2019-05-29T00:07:35.163Z,1.17
2019-05-29T00:10:04.298Z,1.72
2019-05-29T00:12:31.301Z,0.80
2019-05-29T00:14:58.553Z,0.75
2019-05-29T00:17:25.659Z,2.55
2019-05-29T00:19:52.794Z,1.22
2019-05-29T00:22:20.295Z,0.72
2019-05-29T00:24:47.345Z,1.70
2019-05-29T00:27:15.575Z,0.70
2019-05-29T00:29:43.285Z,0.53
2019-05-29T00:32:11.975Z,0.62
2019-05-29T00:34:39.620Z,0.75
2019-05-29T00:37:06.861Z,0.93
2019-05-29T00:39:34.492Z,0.72
2019-05-29T00:42:01.487Z,0.70
2019-05-29T00:44:34.268Z,0.50
2019-05-29T00:46:58.070Z,0.50
2019-05-29T00:49:25.302Z,0.42
2019-05-29T00:51:52.590Z,0.60
2019-05-29T00:54:20.048Z,1.15
2019-05-29T00:56:47.451Z,0.33
2019-05-29T00:59:15.140Z,0.68
2019-05-29T01:01:42.395Z,0.10
2019-05-29T01:04:09.939Z,0.30
2019-05-29T01:06:37.375Z,0.50
2019-05-29T01:09:06.143Z,0.75
2019-05-29T01:11:33.444Z,0.33
2019-05-29T01:14:00.561Z,0.30
2019-05-29T01:16:27.880Z,0.30
2019-05-29T01:18:57.125Z,0.95
2019-05-29T01:21:24.425Z,0.75
2019-05-29T01:23:51.671Z,0.70
2019-05-29T01:26:18.889Z,1.85
2019-05-29T01:28:46.027Z,0.50
2019-05-29T01:31:13.603Z,1.67
2019-05-29T01:33:41.331Z,0.37
2019-05-29T01:36:08.660Z,0.30
2019-05-29T01:38:35.963Z,0.55
2019-05-29T01:41:03.302Z,1.40
2019-05-29T01:43:30.188Z,1.25
2019-05-29T01:45:57.232Z,0.55
2019-05-29T01:48:24.420Z,1.17
2019-05-29T01:50:51.547Z,1.12
2019-05-29T01:53:19.540Z,0.33
2019-05-29T01:55:46.727Z,0.30
2019-05-29T01:58:13.816Z,0.40
2019-05-29T02:00:41.034Z,0.28
2019-05-29T02:03:08.220Z,0.60
2019-05-29T02:05:35.424Z,0.85
2019-05-29T02:08:02.568Z,1.57
2019-05-29T02:10:29.793Z,0.80
2019-05-29T02:12:56.989Z,1.00
2019-05-29T02:15:32.025Z,1.02
2019-05-29T02:17:53.831Z,0.88
2019-05-29T02:20:21.291Z,0.88
2019-05-29T02:22:48.375Z,0.60
2019-05-29T02:25:20.682Z,1.80
2019-05-29T02:27:47.837Z,0.75
2019-05-29T02:30:17.879Z,0.50
2019-05-29T02:32:44.994Z,0.90
2019-05-29T02:35:13.024Z,1.07
2019-05-29T02:37:40.169Z,0.90
2019-05-29T02:40:07.981Z,0.75
2019-05-29T02:42:36.020Z,0.98
2019-05-29T02:45:08.123Z,1.37
2019-05-29T02:47:35.539Z,2.00
2019-05-29T02:50:06.528Z,4.33
2019-05-29T02:52:33.783Z,0.78
2019-05-29T02:55:01.074Z,2.30
2019-05-29T02:57:29.045Z,0.40
2019-05-29T02:59:56.708Z,0.65
2019-05-29T03:02:25.371Z,0.50
2019-05-29T03:04:52.911Z,0.30
2019-05-29T03:07:22.083Z,0.50
2019-05-29T03:09:49.581Z,0.20
2019-05-29T03:12:16.969Z,0.70
2019-05-29T03:14:44.174Z,0.80
2019-05-29T03:17:11.288Z,1.00
2019-05-29T03:19:38.306Z,0.55
2019-05-29T03:22:05.734Z,1.17
2019-05-29T03:24:34.912Z,0.45
2019-05-29T03:27:02.631Z,0.20
2019-05-29T03:29:30.115Z,0.95
2019-05-29T03:31:57.769Z,1.10
2019-05-29T03:34:30.424Z,0.68
2019-05-29T03:36:54.224Z,1.67
2019-05-29T03:39:21.468Z,0.65
2019-05-29T03:41:48.713Z,0.50
2019-05-29T03:44:16.041Z,1.70
2019-05-29T03:46:45.895Z,2.10
2019-05-29T03:49:12.347Z,0.62
2019-05-29T03:51:39.413Z,0.10
2019-05-29T03:54:06.731Z,0.62
2019-05-29T03:56:34.839Z,0.20
2019-05-29T03:59:02.103Z,1.00
2019-05-29T04:01:29.691Z,1.30
2019-05-29T04:03:57.994Z,0.75
2019-05-29T04:06:24.991Z,0.47
2019-05-29T04:08:52.175Z,0.60
2019-05-29T04:11:19.269Z,0.23
2019-05-29T04:13:46.395Z,0.20
2019-05-29T04:16:14.208Z,0.72
2019-05-29T04:18:41.961Z,0.80
2019-05-29T04:21:10.275Z,0.50
2019-05-29T04:23:38.895Z,0.90
2019-05-29T04:26:10.117Z,1.55
2019-05-29T04:28:38.887Z,0.20
2019-05-29T04:31:06.179Z,0.30
2019-05-29T04:33:34.917Z,1.45
2019-05-29T04:36:02.200Z,0.75
2019-05-29T04:38:31.022Z,0.10
2019-05-29T04:40:58.341Z,0.62
2019-05-29T04:43:25.311Z,0.82
2019-05-29T04:45:52.323Z,0.25
2019-05-29T04:48:19.373Z,1.70
2019-05-29T04:50:46.476Z,0.45
2019-05-29T04:53:13.492Z,0.95
2019-05-29T04:55:40.385Z,0.60
2019-05-29T04:58:07.295Z,0.40
2019-05-29T05:00:35.173Z,0.82
2019-05-29T05:03:02.308Z,0.25
2019-05-29T05:05:29.316Z,0.30
2019-05-29T05:07:56.676Z,0.80
2019-05-29T05:10:37.876Z,1.12
2019-05-29T05:13:05.792Z,2.15
2019-05-29T05:15:33.891Z,2.15
2019-05-29T05:18:01.350Z,1.02
2019-05-29T05:20:28.374Z,0.53
2019-05-29T05:22:56.222Z,1.22
2019-05-29T05:25:23.207Z,0.68
2019-05-29T05:27:50.198Z,0.75
2019-05-29T05:30:17.664Z,0.95
2019-05-29T05:32:44.651Z,0.90
2019-05-29T05:35:14.624Z,1.07
2019-05-29T05:37:42.113Z,1.00
2019-05-29T05:40:09.630Z,3.77
2019-05-29T05:42:37.138Z,1.10
2019-05-29T05:45:05.813Z,1.80
2019-05-29T05:47:44.816Z,5.17
2019-05-29T05:50:03.492Z,3.80
2019-05-29T05:52:31.198Z,5.47
2019-05-29T05:54:58.323Z,36.17
2019-05-29T05:57:25.347Z,34.43
2019-05-29T05:59:52.636Z,12.07
2019-05-29T06:02:19.647Z,5.55
2019-05-29T06:04:46.688Z,4.35
2019-05-29T06:07:13.691Z,1.60
2019-05-29T06:09:40.841Z,6.08
2019-05-29T06:12:07.945Z,7.65
2019-05-29T06:14:34.979Z,2.50
2019-05-29T06:17:02.097Z,6.37
2019-05-29T06:19:29.241Z,4.03
2019-05-29T06:21:56.422Z,2.25
2019-05-29T06:24:23.455Z,0.93
2019-05-29T06:26:50.464Z,5.00
2019-05-29T06:29:17.378Z,3.02
2019-05-29T06:31:44.389Z,0.60
2019-05-29T06:34:11.502Z,4.42
2019-05-29T06:36:39.633Z,9.28
2019-05-29T06:39:07.106Z,6.35
2019-05-29T06:41:34.137Z,4.70
2019-05-29T06:44:01.384Z,3.12
2019-05-29T06:46:28.653Z,1.20
2019-05-29T06:49:00.149Z,2.27
2019-05-29T06:51:24.598Z,1.70
2019-05-29T06:53:51.825Z,1.75
2019-05-29T06:56:18.770Z,2.33
2019-05-29T06:58:45.663Z,2.15
2019-05-29T07:01:12.698Z,1.35
2019-05-29T07:03:39.809Z,1.35
2019-05-29T07:06:07.143Z,1.95
2019-05-29T07:08:41.979Z,1.70
2019-05-29T07:11:03.362Z,2.42
2019-05-29T07:13:34.479Z,1.80
2019-05-29T07:15:59.378Z,2.35
2019-05-29T07:18:29.358Z,1.05
2019-05-29T07:20:56.372Z,0.60
2019-05-29T07:23:23.634Z,2.22
2019-05-29T07:25:50.566Z,3.00
2019-05-29T07:28:17.796Z,2.72
2019-05-29T07:30:53.844Z,3.65
2019-05-29T07:33:13.936Z,1.47
2019-05-29T07:35:41.407Z,1.32
2019-05-29T07:38:08.478Z,0.82
2019-05-29T07:40:36.071Z,1.75
2019-05-29T07:43:03.341Z,2.00
2019-05-29T07:45:30.274Z,1.77
2019-05-29T07:47:57.487Z,2.47
2019-05-29T07:50:24.644Z,2.60
2019-05-29T07:52:52.202Z,1.77
2019-05-29T07:55:19.608Z,1.52
2019-05-29T07:57:47.109Z,1.72
2019-05-29T08:00:16.175Z,2.67
2019-05-29T08:02:49.389Z,4.67
2019-05-29T08:07:47.442Z,3.47
2019-05-29T08:10:15.377Z,2.98
2019-05-29T08:12:48.442Z,2.77
2019-05-29T08:15:12.860Z,4.67
2019-05-29T08:17:40.054Z,7.47
2019-05-29T08:20:08.095Z,5.95
2019-05-29T08:22:35.364Z,3.47
2019-05-29T08:25:05.766Z,4.17
2019-05-29T08:27:32.821Z,5.30
2019-05-29T08:30:00.155Z,4.78
2019-05-29T08:32:27.275Z,7.35
2019-05-29T08:34:54.478Z,5.87
2019-05-29T08:37:21.606Z,6.72
2019-05-29T08:39:49.532Z,6.75
2019-05-29T08:42:23.047Z,4.67
2019-05-29T08:44:45.811Z,4.05
2019-05-29T08:47:12.882Z,4.83
2019-05-29T08:49:41.675Z,7.22
2019-05-29T08:52:12.365Z,7.78
2019-05-29T08:54:38.199Z,8.65
2019-05-29T08:57:05.433Z,7.15
2019-05-29T08:59:32.542Z,6.20
2019-05-29T09:01:59.714Z,8.58
2019-05-29T09:04:27.786Z,7.22
2019-05-29T09:06:54.823Z,6.25
2019-05-29T09:09:22.041Z,7.47
2019-05-29T09:11:50.088Z,6.95
2019-05-29T09:14:18.027Z,6.30
2019-05-29T09:16:45.040Z,5.87
2019-05-29T09:19:12.179Z,7.08
2019-05-29T09:21:39.115Z,4.62
2019-05-29T09:24:06.211Z,6.55
2019-05-29T09:26:33.542Z,10.23
2019-05-29T09:29:00.565Z,7.20
2019-05-29T09:31:28.370Z,7.20
2019-05-29T09:33:55.692Z,6.30
2019-05-29T09:36:24.593Z,9.58
2019-05-29T09:38:51.926Z,9.00
2019-05-29T09:41:19.372Z,7.75
2019-05-29T09:43:58.175Z,10.45
2019-05-29T09:46:17.105Z,14.47
2019-05-29T09:48:49.654Z,11.88
2019-05-29T09:51:21.371Z,8.63
2019-05-29T09:53:42.706Z,8.10
2019-05-29T09:56:09.943Z,8.53
2019-05-29T09:58:37.070Z,11.28
2019-05-29T10:01:19.937Z,10.72
2019-05-29T10:03:33.553Z,10.98
2019-05-29T10:06:01.537Z,12.25
2019-05-29T10:08:29.212Z,6.87
2019-05-29T10:11:01.450Z,8.05
2019-05-29T10:13:26.871Z,9.98
2019-05-29T10:15:55.906Z,15.55
2019-05-29T10:18:31.790Z,10.72
2019-05-29T10:20:53.078Z,49.55
2019-05-29T10:23:20.312Z,205.03
2019-05-29T10:25:49.898Z,62.88
2019-05-29T10:28:17.335Z,13.90
2019-05-29T10:30:46.157Z,36.55
2019-05-29T10:33:13.481Z,78.37
2019-05-29T10:35:40.502Z,19.35
2019-05-29T10:38:07.596Z,13.18
2019-05-29T10:40:34.627Z,20.08
2019-05-29T10:43:01.666Z,23.83
2019-05-29T10:45:29.124Z,33.90
2019-05-29T10:47:56.141Z,22.37
2019-05-29T10:50:23.189Z,21.33
2019-05-29T10:52:50.114Z,16.12
2019-05-29T10:55:21.524Z,19.07
2019-05-29T10:57:49.148Z,15.08
2019-05-29T11:00:17.263Z,15.83
2019-05-29T11:02:46.187Z,22.65
2019-05-29T11:05:14.570Z,129.25
2019-05-29T11:07:41.824Z,74.47
2019-05-29T11:10:13.343Z,13.93
2019-05-29T11:12:39.704Z,26.55
2019-05-29T11:15:20.947Z,22.15
2019-05-29T11:17:37.502Z,115.30
2019-05-29T11:20:07.800Z,147.13
2019-05-29T11:22:34.919Z,40.58
2019-05-29T11:25:22.143Z,17.40
2019-05-29T11:27:34.542Z,16.07
2019-05-29T11:30:02.062Z,61.05
2019-05-29T11:32:29.388Z,21.12
2019-05-29T11:34:57.531Z,17.57
2019-05-29T11:37:24.620Z,16.00
2019-05-29T11:39:52.667Z,16.32
2019-05-29T11:42:27.328Z,12.82
2019-05-29T11:44:49.135Z,18.67
2019-05-29T11:47:16.257Z,42.20
2019-05-29T11:49:43.387Z,24.50
2019-05-29T11:52:23.779Z,58.70
2019-05-29T11:54:41.144Z,56.95
2019-05-29T11:57:08.212Z,41.98
2019-05-29T11:59:35.597Z,31.80
2019-05-29T12:02:03.447Z,43.83
2019-05-29T12:04:30.783Z,22.40
2019-05-29T12:06:59.528Z,20.08
2019-05-29T12:09:32.777Z,13.22
2019-05-29T12:11:56.236Z,13.08
2019-05-29T12:14:23.525Z,13.38
2019-05-29T12:16:51.742Z,12.47
2019-05-29T12:19:19.079Z,17.07
2019-05-29T12:21:46.214Z,19.35
2019-05-29T12:24:13.304Z,10.60
2019-05-29T12:26:40.372Z,18.52
2019-05-29T12:29:11.653Z,27.85
2019-05-29T12:31:36.385Z,15.23
2019-05-29T12:34:16.920Z,21.42
2019-05-29T12:36:32.648Z,15.35
2019-05-29T12:38:59.811Z,13.00
2019-05-29T12:41:27.009Z,12.43
2019-05-29T12:43:55.201Z,11.18
2019-05-29T12:46:22.445Z,17.05
2019-05-29T12:48:49.579Z,19.12
2019-05-29T12:51:16.779Z,17.85
2019-05-29T12:53:43.941Z,19.15
2019-05-29T12:56:10.996Z,15.40
2019-05-29T12:58:38.126Z,15.32
2019-05-29T13:01:05.338Z,33.90
2019-05-29T13:03:33.735Z,25.52
2019-05-29T13:06:00.760Z,19.67
2019-05-29T13:08:27.976Z,22.95
2019-05-29T13:10:56.209Z,22.35
2019-05-29T13:13:23.326Z,21.27
2019-05-29T13:15:50.934Z,21.48
2019-05-29T13:18:18.255Z,20.95
2019-05-29T13:20:45.668Z,20.37
2019-05-29T13:23:13.036Z,19.85
2019-05-29T13:25:40.272Z,15.65
2019-05-29T13:28:07.481Z,17.73
2019-05-29T13:30:34.793Z,15.05
2019-05-29T13:33:04.725Z,18.42
2019-05-29T13:35:31.319Z,20.00
2019-05-29T13:37:59.014Z,25.88
2019-05-29T13:40:26.061Z,24.10
2019-05-29T13:42:53.160Z,17.30
2019-05-29T13:45:21.660Z,27.48
2019-05-29T13:47:48.760Z,43.83
2019-05-29T13:50:17.363Z,51.88
2019-05-29T13:52:44.363Z,16.30
2019-05-29T13:55:12.323Z,10.15
2019-05-29T13:57:40.160Z,10.48
2019-05-29T14:00:30.256Z,11.40
2019-05-29T14:02:41.626Z,14.35
2019-05-29T14:05:09.999Z,12.25
2019-05-29T14:07:37.200Z,14.85
2019-05-29T14:10:06.407Z,15.13
2019-05-29T14:12:36.340Z,16.32
2019-05-29T14:15:08.327Z,12.53
2019-05-29T14:17:36.167Z,11.55
2019-05-29T14:20:08.837Z,14.47
2019-05-29T14:22:36.095Z,21.93
2019-05-29T14:25:07.457Z,16.37
2019-05-29T14:27:34.675Z,15.45
2019-05-29T14:30:08.002Z,18.98
2019-05-29T14:32:34.681Z,18.70
2019-05-29T14:35:05.938Z,58.13
2019-05-29T14:37:33.324Z,45.48
2019-05-29T14:40:01.532Z,18.67
2019-05-29T14:42:29.022Z,15.00
2019-05-29T14:44:56.296Z,15.53
2019-05-29T14:47:23.795Z,16.10
2019-05-29T14:49:50.842Z,26.90
2019-05-29T14:52:17.970Z,40.25
2019-05-29T14:54:45.120Z,36.77
2019-05-29T14:57:23.475Z,25.23
2019-05-29T14:59:41.763Z,36.35
2019-05-29T15:02:20.954Z,23.95
2019-05-29T15:04:38.111Z,25.20
2019-05-29T15:07:05.816Z,21.77
2019-05-29T15:09:33.200Z,93.58
2019-05-29T15:12:00.669Z,109.12
2019-05-29T15:14:28.384Z,115.12
2019-05-29T15:16:55.964Z,68.42
2019-05-29T15:19:23.134Z,124.82
2019-05-29T15:21:50.332Z,92.55
2019-05-29T15:24:17.542Z,102.50
2019-05-29T15:26:44.796Z,76.42
2019-05-29T15:29:14.424Z,58.33
2019-05-29T15:31:40.784Z,61.63
2019-05-29T15:34:08.175Z,68.42
2019-05-29T15:36:35.490Z,87.90
2019-05-29T15:39:08.512Z,86.37
2019-05-29T15:41:35.873Z,100.02
2019-05-29T15:44:03.590Z,70.28
2019-05-29T15:46:30.525Z,42.50
2019-05-29T15:48:57.722Z,53.30
2019-05-29T15:51:24.777Z,51.73
2019-05-29T15:53:51.917Z,51.25
2019-05-29T15:56:27.438Z,50.50
2019-05-29T15:58:48.109Z,68.60
2019-05-29T16:01:17.957Z,85.07
2019-05-29T16:03:45.188Z,86.22
2019-05-29T16:06:12.121Z,79.85
2019-05-29T16:08:39.265Z,67.32
2019-05-29T16:11:06.309Z,42.00
2019-05-29T16:13:33.791Z,37.40
2019-05-29T16:16:01.207Z,45.05
2019-05-29T16:18:29.782Z,64.87
2019-05-29T16:20:57.041Z,41.28
2019-05-29T16:23:35.332Z,55.80
2019-05-29T16:25:53.307Z,61.08
2019-05-29T16:28:21.451Z,52.55
2019-05-29T16:30:48.996Z,36.93
2019-05-29T16:33:17.251Z,30.52
2019-05-29T16:35:44.282Z,35.08
2019-05-29T16:38:11.578Z,34.13
2019-05-29T16:40:38.595Z,37.23
2019-05-29T16:43:05.736Z,51.73
2019-05-29T16:45:32.836Z,46.83
2019-05-29T16:47:59.972Z,43.25
2019-05-29T16:50:27.035Z,32.05
2019-05-29T16:52:54.141Z,50.40
2019-05-29T16:55:21.380Z,70.55
2019-05-29T16:57:48.424Z,72.30
2019-05-29T17:00:17.605Z,82.67
2019-05-29T17:02:45.151Z,93.60
2019-05-29T17:05:13.529Z,59.90
2019-05-29T17:07:40.760Z,62.70
2019-05-29T17:10:08.670Z,45.43
2019-05-29T17:12:35.816Z,49.18
2019-05-29T17:15:09.751Z,41.15
2019-05-29T17:17:37.131Z,37.40
2019-05-29T17:20:06.752Z,42.95
2019-05-29T17:22:33.705Z,43.05
2019-05-29T17:25:00.621Z,49.25
2019-05-29T17:27:27.766Z,56.40
2019-05-29T17:29:55.004Z,68.90
2019-05-29T17:32:23.216Z,93.65
2019-05-29T17:34:50.332Z,69.17
2019-05-29T17:37:17.475Z,54.93
2019-05-29T17:39:44.733Z,76.97
2019-05-29T17:42:12.899Z,79.65
2019-05-29T17:44:40.008Z,61.85
2019-05-29T17:47:07.356Z,60.03
2019-05-29T17:49:34.862Z,50.92
2019-05-29T17:52:21.822Z,39.60
2019-05-29T17:54:49.187Z,31.62
2019-05-29T17:57:16.721Z,24.95
2019-05-29T17:59:45.351Z,23.92
2019-05-29T18:02:12.481Z,30.30
2019-05-29T18:04:39.571Z,45.85
2019-05-29T18:07:06.761Z,34.27
2019-05-29T18:09:33.845Z,42.80
2019-05-29T18:12:00.977Z,55.20
2019-05-29T18:14:28.103Z,112.25
2019-05-29T18:16:55.129Z,76.62
2019-05-29T18:19:22.069Z,62.13
2019-05-29T18:21:49.114Z,58.60
2019-05-29T18:24:16.047Z,59.08
2019-05-29T18:26:47.319Z,56.42
2019-05-29T18:29:12.119Z,50.75
2019-05-29T18:31:39.217Z,51.25
2019-05-29T18:34:06.335Z,47.00
2019-05-29T18:36:33.498Z,49.48
2019-05-29T18:39:00.647Z,51.15
2019-05-29T18:41:28.521Z,52.70
2019-05-29T18:43:55.999Z,66.77
2019-05-29T18:46:23.293Z,70.70
2019-05-29T18:48:50.527Z,73.22
2019-05-29T18:51:17.626Z,60.12
2019-05-29T18:53:44.795Z,59.70
2019-05-29T18:56:11.706Z,51.68
2019-05-29T18:58:38.827Z,56.40
2019-05-29T19:01:06.195Z,65.28
2019-05-29T19:03:33.535Z,65.40
2019-05-29T19:06:00.871Z,63.92
2019-05-29T19:08:29.706Z,61.60
2019-05-29T19:10:57.130Z,61.65
2019-05-29T19:13:24.093Z,59.60
2019-05-29T19:15:51.110Z,55.60
2019-05-29T19:18:19.386Z,54.35
2019-05-29T19:20:46.661Z,98.42
2019-05-29T19:23:14.229Z,127.67
2019-05-29T19:25:41.382Z,106.52
2019-05-29T19:28:08.705Z,94.15
2019-05-29T19:30:35.665Z,132.67
2019-05-29T19:33:03.075Z,99.90
2019-05-29T19:35:30.105Z,64.70
2019-05-29T19:37:57.226Z,70.57
2019-05-29T19:40:24.361Z,72.35
2019-05-29T19:42:54.482Z,81.97
2019-05-29T19:45:20.834Z,82.88
2019-05-29T19:47:47.949Z,75.60
2019-05-29T19:50:15.684Z,81.20
2019-05-29T19:52:42.611Z,76.02
2019-05-29T19:55:10.384Z,65.87
2019-05-29T19:57:52.527Z,57.10
2019-05-29T20:00:09.225Z,59.42
2019-05-29T20:02:38.057Z,49.35
2019-05-29T20:05:06.338Z,50.17
2019-05-29T20:07:33.380Z,159.93
2019-05-29T20:10:00.528Z,68.10
2019-05-29T20:12:27.691Z,46.23
2019-05-29T20:14:55.232Z,52.80
2019-05-29T20:17:22.342Z,46.75
2019-05-29T20:19:49.660Z,43.85
2019-05-29T20:22:16.795Z,44.25
2019-05-29T20:24:43.970Z,38.80
2019-05-29T20:27:11.232Z,39.60
2019-05-29T20:29:38.558Z,37.50
2019-05-29T20:32:05.954Z,37.38
2019-05-29T20:34:32.967Z,40.23
2019-05-29T20:37:00.208Z,37.67
2019-05-29T20:39:27.310Z,41.65
2019-05-29T20:41:54.511Z,48.58
2019-05-29T20:44:21.439Z,40.52
2019-05-29T20:46:48.485Z,45.15
2019-05-29T20:49:15.702Z,42.30
2019-05-29T20:51:42.940Z,47.40
2019-05-29T20:54:10.074Z,49.65
2019-05-29T20:56:37.773Z,48.08
2019-05-29T20:59:05.048Z,46.63
2019-05-29T21:01:32.199Z,59.30
2019-05-29T21:03:59.290Z,55.70
2019-05-29T21:06:26.347Z,57.93
2019-05-29T21:08:53.680Z,56.53
2019-05-29T21:11:20.771Z,51.13
2019-05-29T21:13:47.798Z,58.38
2019-05-29T21:16:14.913Z,55.38
2019-05-29T21:18:42.247Z,51.58
2019-05-29T21:21:09.304Z,44.05
2019-05-29T21:23:36.431Z,48.48
2019-05-29T21:26:04.275Z,50.95
2019-05-29T21:28:40.880Z,47.50
2019-05-29T21:31:01.137Z,49.63
2019-05-29T21:33:28.325Z,48.52
2019-05-29T21:35:55.700Z,46.30
2019-05-29T21:38:22.705Z,47.80
2019-05-29T21:40:50.133Z,43.25
2019-05-29T21:43:17.172Z,48.75
2019-05-29T21:45:45.282Z,51.25
2019-05-29T21:48:12.484Z,52.03
2019-05-29T21:50:39.739Z,55.85
2019-05-29T21:53:06.842Z,51.28
2019-05-29T21:55:33.887Z,59.75
2019-05-29T21:58:00.913Z,58.02
2019-05-29T22:00:30.611Z,59.65
2019-05-29T22:02:57.852Z,61.02
2019-05-29T22:05:25.385Z,60.80
2019-05-29T22:07:52.608Z,61.60
2019-05-29T22:10:19.719Z,59.48
2019-05-29T22:12:46.973Z,62.38
2019-05-29T22:15:14.259Z,67.97
2019-05-29T22:17:41.201Z,63.83
2019-05-29T22:20:08.906Z,65.67
2019-05-29T22:22:35.965Z,66.05
2019-05-29T22:25:06.766Z,69.80
2019-05-29T22:27:35.886Z,63.35
2019-05-29T22:30:05.615Z,59.70
2019-05-29T22:32:32.668Z,58.30
2019-05-29T22:34:59.809Z,59.65
2019-05-29T22:37:26.766Z,62.25
2019-05-29T22:39:53.729Z,66.57
2019-05-29T22:42:20.927Z,65.30
2019-05-29T22:44:48.201Z,76.85
2019-05-29T22:47:15.222Z,65.90
2019-05-29T22:49:42.234Z,61.13
2019-05-29T22:52:09.273Z,55.63
2019-05-29T22:54:36.419Z,51.83
2019-05-29T22:57:05.774Z,43.28
2019-05-29T22:59:32.891Z,35.65
2019-05-29T23:02:00.465Z,41.35
2019-05-29T23:04:27.458Z,43.68
2019-05-29T23:06:56.318Z,39.83
2019-05-29T23:09:23.735Z,42.80
2019-05-29T23:11:52.082Z,47.30
2019-05-29T23:14:19.322Z,46.63
2019-05-29T23:16:46.266Z,48.30
2019-05-29T23:19:13.806Z,46.75
2019-05-29T23:21:40.828Z,42.13
2019-05-29T23:24:08.065Z,40.67
2019-05-29T23:26:35.287Z,40.95
2019-05-29T23:29:03.925Z,36.55
2019-05-29T23:31:31.363Z,35.68
2019-05-29T23:33:58.999Z,39.83
2019-05-29T23:36:26.186Z,35.23
2019-05-29T23:38:53.417Z,40.98
2019-05-29T23:41:20.887Z,43.30
2019-05-29T23:43:47.839Z,41.83
2019-05-29T23:46:14.747Z,27.93
2019-05-29T23:48:42.063Z,30.97
2019-05-29T23:51:09.311Z,35.13
2019-05-29T23:53:36.818Z,37.70
2019-05-29T23:56:04.073Z,43.85
2019-05-29T23:58:31.232Z,45.63
